Wetterdaten: Woche 29.09.03 - 05.10.03 (KW40)
Datum Zeit Temperatur Luftfeuchte Luftdruck Regenmenge Wind Richtung Taupunkt Windchill
29.09.2003 00:00 13.0 C 90 % 1012.8 hPa 0.0 l/m 12.8 km/h (3 Bft) W-NW 11.5 C 13.0 C
29.09.2003 01:00 12.8 C 89 % 1012.8 hPa 0.0 l/m 4.5 km/h (1 Bft) W-NW 11.1 C 12.8 C
29.09.2003 02:00 12.0 C 91 % 1012.8 hPa 0.8 l/m 11.6 km/h (2 Bft) W-NW 10.6 C 12.0 C
29.09.2003 03:00 11.3 C 92 % 1012.8 hPa 0.4 l/m 7.8 km/h (2 Bft) W-NW 10.1 C 11.3 C
29.09.2003 04:00 11.6 C 92 % 1012.8 hPa 0.0 l/m 10.4 km/h (2 Bft) W-NW 10.2 C 11.6 C
29.09.2003 05:00 11.4 C 89 % 1012.8 hPa 0.0 l/m 6.8 km/h (2 Bft) W-NW 9.6 C 11.4 C
29.09.2003 06:00 10.9 C 90 % 1013.6 hPa 0.0 l/m 6.9 km/h (2 Bft) W 9.3 C 10.9 C
29.09.2003 07:00 10.9 C 89 % 1013.9 hPa 0.0 l/m 16.4 km/h (3 Bft) W-NW 9.1 C 10.9 C
29.09.2003 08:00 11.5 C 83 % 1014.8 hPa 0.0 l/m 15.0 km/h (3 Bft) W-NW 8.7 C 11.5 C
29.09.2003 09:00 11.8 C 79 % 1014.9 hPa 0.0 l/m 18.6 km/h (3 Bft) W-NW 8.2 C 11.8 C
29.09.2003 10:00 12.0 C 73 % 1015.6 hPa 0.0 l/m 22.9 km/h (4 Bft) NW 7.2 C 12.0 C
29.09.2003 11:00 13.1 C 59 % 1015.4 hPa 0.0 l/m 22.5 km/h (4 Bft) NW 5.2 C 13.1 C
29.09.2003 12:00 14.0 C 51 % 1014.8 hPa 0.0 l/m 23.0 km/h (4 Bft) NW 4.1 C 14.0 C
29.09.2003 13:00 15.3 C 43 % 1014.8 hPa 0.0 l/m 21.7 km/h (4 Bft) W-NW 2.9 C 15.3 C
29.09.2003 14:00 16.2 C 39 % 1014.8 hPa 0.0 l/m 19.5 km/h (3 Bft) NW 2.1 C 16.2 C
29.09.2003 15:00 17.0 C 35 % 1014.8 hPa 0.0 l/m 19.0 km/h (3 Bft) W-NW 1.3 C 17.0 C
29.09.2003 16:00 17.0 C 36 % 1014.1 hPa 0.0 l/m 13.7 km/h (3 Bft) NW 1.9 C 17.0 C
29.09.2003 17:00 16.3 C 38 % 1013.8 hPa 0.0 l/m 6.1 km/h (2 Bft) NW 1.8 C 16.3 C
29.09.2003 18:00 14.8 C 43 % 1014.2 hPa 0.0 l/m 7.0 km/h (2 Bft) W-NW 2.4 C 14.8 C
29.09.2003 19:00 12.2 C 54 % 1014.8 hPa 0.0 l/m 2.4 km/h (1 Bft) O-SO 3.2 C 12.2 C
29.09.2003 20:00 9.8 C 70 % 1014.8 hPa 0.0 l/m 4.1 km/h (1 Bft) O-SO 4.4 C 9.5 C
29.09.2003 21:00 8.1 C 77 % 1014.8 hPa 0.0 l/m 1.4 km/h (1 Bft) O-SO 4.3 C 8.1 C
29.09.2003 22:00 7.1 C 82 % 1015.1 hPa 0.0 l/m 0.0 km/h (0 Bft) N 4.2 C 7.1 C
29.09.2003 23:00 6.8 C 86 % 1015.6 hPa 0.0 l/m 0.0 km/h (0 Bft) N 4.6 C 6.8 C
30.09.2003 00:00 5.9 C 89 % 1014.8 hPa 0.0 l/m 0.0 km/h (0 Bft) N 4.2 C 5.9 C
30.09.2003 01:00 5.6 C 91 % 1014.8 hPa 0.0 l/m 0.0 km/h (0 Bft) N 4.1 C 5.6 C
30.09.2003 02:00 4.5 C 92 % 1014.8 hPa 0.0 l/m 0.0 km/h (0 Bft) N 3.4 C 4.5 C
30.09.2003 03:00 4.2 C 93 % 1014.8 hPa 0.0 l/m 0.0 km/h (0 Bft) N 3.2 C 4.2 C
30.09.2003 04:00 3.7 C 94 % 1014.3 hPa 0.0 l/m 0.0 km/h (0 Bft) N 2.9 C 3.7 C
30.09.2003 05:00 3.4 C 95 % 1014.4 hPa 0.0 l/m 0.9 km/h (0 Bft) O-SO 2.7 C 3.2 C
30.09.2003 06:00 3.0 C 95 % 1014.8 hPa 0.0 l/m 0.6 km/h (0 Bft) O-SO 2.3 C 2.9 C
30.09.2003 07:00 3.3 C 96 % 1014.5 hPa 0.0 l/m 0.0 km/h (0 Bft) N 2.7 C 3.3 C
30.09.2003 08:00 4.6 C 100 % 1014.8 hPa 0.0 l/m 0.0 km/h (0 Bft) N 4.5 C 4.6 C
30.09.2003 09:00 6.8 C 93 % 1014.8 hPa 0.0 l/m 0.0 km/h (0 Bft) N 5.7 C 6.8 C
30.09.2003 10:00 9.8 C 75 % 1014.8 hPa 0.0 l/m 1.3 km/h (1 Bft) O-SO 5.4 C 9.8 C
30.09.2003 11:00 12.5 C 62 % 1014.6 hPa 0.0 l/m 9.3 km/h (2 Bft) O-SO 5.4 C 12.5 C
30.09.2003 12:00 14.9 C 56 % 1013.8 hPa 0.0 l/m 11.9 km/h (2 Bft) O-SO 6.2 C 14.9 C
30.09.2003 13:00 16.2 C 52 % 1013.8 hPa 0.0 l/m 15.3 km/h (3 Bft) O-SO 6.2 C 16.2 C
30.09.2003 14:00 17.3 C 48 % 1013.0 hPa 0.0 l/m 7.5 km/h (2 Bft) O-SO 6.0 C 17.3 C
30.09.2003 15:00 18.4 C 41 % 1012.8 hPa 0.0 l/m 15.6 km/h (3 Bft) O-SO 5.0 C 18.4 C
30.09.2003 16:00 18.6 C 41 % 1012.8 hPa 0.0 l/m 11.9 km/h (2 Bft) O-SO 5.1 C 18.6 C
30.09.2003 17:00 18.1 C 43 % 1012.8 hPa 0.0 l/m 6.9 km/h (2 Bft) O-SO 5.2 C 18.1 C
30.09.2003 18:00 16.8 C 46 % 1012.8 hPa 0.0 l/m 9.9 km/h (2 Bft) O-SO 5.2 C 16.8 C
30.09.2003 19:00 13.9 C 62 % 1012.1 hPa 0.0 l/m 6.2 km/h (2 Bft) O-SO 6.6 C 13.9 C
30.09.2003 20:00 11.4 C 74 % 1012.2 hPa 0.0 l/m 0.0 km/h (0 Bft) N 6.9 C 11.4 C
30.09.2003 21:00 10.0 C 80 % 1012.8 hPa 0.0 l/m 0.0 km/h (0 Bft) N 6.7 C 10.0 C
30.09.2003 22:00 9.3 C 85 % 1012.8 hPa 0.0 l/m 0.0 km/h (0 Bft) N 6.9 C 9.3 C
30.09.2003 23:00 8.8 C 89 % 1012.8 hPa 0.0 l/m 1.2 km/h (1 Bft) O-SO 7.0 C 8.7 C
01.10.2003 00:00 8.0 C 91 % 1012.8 hPa 0.0 l/m 0.9 km/h (0 Bft) O-SO 6.7 C 7.9 C
01.10.2003 01:00 7.3 C 93 % 1012.8 hPa 0.0 l/m 0.8 km/h (0 Bft) O-SO 6.3 C 7.3 C
01.10.2003 02:00 7.1 C 94 % 1012.7 hPa 0.0 l/m 0.0 km/h (0 Bft) N 6.3 C 7.1 C
01.10.2003 03:00 7.1 C 95 % 1012.1 hPa 0.0 l/m 0.0 km/h (0 Bft) N 6.3 C 7.1 C
01.10.2003 04:00 7.1 C 95 % 1011.6 hPa 0.0 l/m 0.0 km/h (0 Bft) N 6.3 C 7.1 C
01.10.2003 05:00 7.1 C 95 % 1010.7 hPa 0.0 l/m 0.3 km/h (0 Bft) W-SW 6.4 C 7.1 C
01.10.2003 06:00 7.5 C 95 % 1010.0 hPa 0.0 l/m 0.3 km/h (0 Bft) S-SO 6.7 C 7.5 C
01.10.2003 07:00 7.6 C 95 % 1009.7 hPa 0.0 l/m 0.1 km/h (0 Bft) W-NW 6.9 C 7.6 C
01.10.2003 08:00 8.4 C 95 % 1010.4 hPa 0.0 l/m 0.2 km/h (0 Bft) NW 7.6 C 8.4 C
01.10.2003 09:00 9.4 C 90 % 1010.7 hPa 0.0 l/m 0.0 km/h (0 Bft) N 7.8 C 9.4 C
01.10.2003 10:00 10.1 C 88 % 1010.7 hPa 0.4 l/m 0.8 km/h (0 Bft) NW 8.3 C 10.1 C
01.10.2003 11:00 10.6 C 94 % 1010.3 hPa 0.8 l/m 0.1 km/h (0 Bft) N 9.6 C 10.6 C
01.10.2003 12:00 10.8 C 94 % 1010.4 hPa 1.1 l/m 0.0 km/h (0 Bft) N 9.8 C 10.8 C
01.10.2003 13:00 11.0 C 99 % 1010.7 hPa 1.5 l/m 1.0 km/h (0 Bft) NO 10.7 C 11.0 C
01.10.2003 14:00 11.1 C 100 % 1009.8 hPa 0.8 l/m 1.1 km/h (1 Bft) SO 11.1 C 11.1 C
01.10.2003 15:00 11.3 C 100 % 1010.0 hPa 0.8 l/m 0.0 km/h (0 Bft) N 11.3 C 11.3 C
01.10.2003 16:00 11.4 C 100 % 1010.7 hPa 0.4 l/m 0.7 km/h (0 Bft) W-NW 11.4 C 11.4 C
01.10.2003 17:00 11.6 C 100 % 1010.7 hPa 0.8 l/m 0.4 km/h (0 Bft) SO 11.6 C 11.6 C
01.10.2003 18:00 11.6 C 100 % 1010.7 hPa 0.4 l/m 0.0 km/h (0 Bft) O-SO 11.6 C 11.6 C
01.10.2003 19:00 11.5 C 98 % 1010.7 hPa 0.4 l/m 1.0 km/h (0 Bft) O-SO 11.1 C 11.5 C
01.10.2003 20:00 11.3 C 99 % 1011.0 hPa 0.0 l/m 0.0 km/h (0 Bft) N 11.1 C 11.3 C
01.10.2003 21:00 11.2 C 99 % 1011.7 hPa 0.0 l/m 0.0 km/h (0 Bft) N 11.1 C 11.2 C
01.10.2003 22:00 11.1 C 99 % 1011.7 hPa 0.0 l/m 0.0 km/h (0 Bft) N 10.9 C 11.1 C
01.10.2003 23:00 10.6 C 98 % 1011.7 hPa 0.0 l/m 2.9 km/h (1 Bft) O-SO 10.2 C 10.6 C
02.10.2003 00:00 10.5 C 96 % 1011.7 hPa 0.0 l/m 1.1 km/h (1 Bft) O-SO 9.8 C 10.5 C
02.10.2003 01:00 10.4 C 98 % 1012.1 hPa 0.0 l/m 4.0 km/h (1 Bft) O-SO 10.0 C 10.3 C
02.10.2003 02:00 10.8 C 99 % 1012.7 hPa 0.0 l/m 3.6 km/h (1 Bft) O-SO 10.6 C 10.8 C
02.10.2003 03:00 11.0 C 100 % 1012.8 hPa 0.0 l/m 0.0 km/h (0 Bft) N 11.0 C 11.0 C
02.10.2003 04:00 11.2 C 100 % 1012.8 hPa 0.0 l/m 0.0 km/h (0 Bft) N 11.2 C 11.2 C
02.10.2003 05:00 11.4 C 100 % 1012.8 hPa 0.0 l/m 0.0 km/h (0 Bft) N 11.4 C 11.4 C
02.10.2003 06:00 11.4 C 100 % 1013.0 hPa 0.0 l/m 0.0 km/h (0 Bft) N 11.4 C 11.4 C
02.10.2003 07:00 11.4 C 100 % 1013.8 hPa 0.0 l/m 0.5 km/h (0 Bft) O 11.4 C 11.4 C
02.10.2003 08:00 12.0 C 100 % 1013.8 hPa 0.0 l/m 0.0 km/h (0 Bft) N 12.0 C 12.0 C
02.10.2003 09:00 12.8 C 100 % 1014.4 hPa 0.0 l/m 1.3 km/h (1 Bft) SO 12.8 C 12.8 C
02.10.2003 10:00 14.4 C 95 % 1014.8 hPa 0.0 l/m 3.9 km/h (1 Bft) S-SO 13.5 C 14.4 C
02.10.2003 11:00 15.8 C 86 % 1014.8 hPa 0.0 l/m 2.1 km/h (1 Bft) O-SO 13.4 C 15.8 C
02.10.2003 12:00 17.4 C 78 % 1014.8 hPa 0.0 l/m 2.5 km/h (1 Bft) SO 13.6 C 17.4 C
02.10.2003 13:00 20.3 C 66 % 1013.9 hPa 0.0 l/m 3.6 km/h (1 Bft) SO 13.8 C 20.3 C
02.10.2003 14:00 22.8 C 58 % 1013.8 hPa 0.0 l/m 3.5 km/h (1 Bft) SO 14.0 C 22.8 C
02.10.2003 15:00 22.9 C 58 % 1013.1 hPa 0.0 l/m 2.3 km/h (1 Bft) SO 14.2 C 22.9 C
02.10.2003 16:00 23.8 C 53 % 1012.8 hPa 0.0 l/m 0.7 km/h (0 Bft) S-SW 13.7 C 23.8 C
02.10.2003 17:00 22.8 C 56 % 1012.8 hPa 0.0 l/m 0.2 km/h (0 Bft) O-NO 13.6 C 22.8 C
02.10.2003 18:00 20.7 C 68 % 1011.9 hPa 0.0 l/m 1.4 km/h (1 Bft) O-SO 14.5 C 20.7 C
02.10.2003 19:00 17.9 C 81 % 1011.7 hPa 0.0 l/m 1.5 km/h (1 Bft) O-SO 14.7 C 17.9 C
02.10.2003 20:00 15.9 C 89 % 1011.7 hPa 0.0 l/m 0.8 km/h (0 Bft) O-SO 14.1 C 15.9 C
02.10.2003 21:00 14.7 C 92 % 1011.3 hPa 0.0 l/m 0.8 km/h (0 Bft) O-SO 13.3 C 14.7 C
02.10.2003 22:00 13.9 C 93 % 1010.7 hPa 0.0 l/m 0.0 km/h (0 Bft) N 12.7 C 13.9 C
02.10.2003 23:00 13.6 C 95 % 1010.7 hPa 0.0 l/m 0.9 km/h (0 Bft) O-SO 12.8 C 13.6 C
03.10.2003 00:00 13.8 C 98 % 1010.7 hPa 0.0 l/m 0.0 km/h (0 Bft) N 13.5 C 13.8 C
03.10.2003 01:00 13.8 C 95 % 1010.7 hPa 0.0 l/m 2.3 km/h (1 Bft) O-SO 13.1 C 13.8 C
03.10.2003 02:00 14.3 C 96 % 1010.3 hPa 0.0 l/m 5.4 km/h (1 Bft) O-SO 13.6 C 14.3 C
03.10.2003 03:00 14.4 C 95 % 1009.9 hPa 0.0 l/m 0.6 km/h (0 Bft) O-SO 13.6 C 14.4 C
03.10.2003 04:00 14.6 C 95 % 1010.7 hPa 1.5 l/m 4.3 km/h (1 Bft) O-SO 13.9 C 14.6 C
03.10.2003 05:00 14.6 C 95 % 1010.4 hPa 0.8 l/m 0.6 km/h (0 Bft) O-SO 13.8 C 14.6 C
03.10.2003 06:00 14.6 C 96 % 1010.7 hPa 0.0 l/m 1.7 km/h (1 Bft) SO 13.9 C 14.6 C
03.10.2003 07:00 14.7 C 97 % 1011.3 hPa 0.0 l/m 1.0 km/h (0 Bft) O-SO 14.2 C 14.7 C
03.10.2003 08:00 14.7 C 96 % 1011.7 hPa 2.7 l/m 3.2 km/h (1 Bft) O-SO 14.1 C 14.7 C
03.10.2003 09:00 14.9 C 100 % 1011.7 hPa 1.1 l/m 1.1 km/h (1 Bft) O-SO 14.9 C 14.9 C
03.10.2003 10:00 15.2 C 100 % 1012.8 hPa 0.8 l/m 0.4 km/h (0 Bft) SO 15.2 C 15.2 C
03.10.2003 11:00 15.7 C 100 % 1012.8 hPa 0.4 l/m 0.1 km/h (0 Bft) N 15.7 C 15.7 C
03.10.2003 12:00 17.0 C 99 % 1012.5 hPa 0.0 l/m 5.1 km/h (1 Bft) SO 16.8 C 17.0 C
03.10.2003 13:00 18.3 C 89 % 1011.9 hPa 0.0 l/m 9.3 km/h (2 Bft) SO 16.5 C 18.3 C
03.10.2003 14:00 19.2 C 80 % 1011.5 hPa 0.0 l/m 8.1 km/h (2 Bft) SO 15.7 C 19.2 C
03.10.2003 15:00 19.3 C 74 % 1010.7 hPa 0.0 l/m 5.4 km/h (1 Bft) SO 14.5 C 19.3 C
03.10.2003 16:00 19.0 C 77 % 1010.7 hPa 0.0 l/m 4.0 km/h (1 Bft) SO 14.8 C 19.0 C
03.10.2003 17:00 17.9 C 78 % 1010.0 hPa 0.0 l/m 8.9 km/h (2 Bft) SO 14.0 C 17.9 C
03.10.2003 18:00 17.2 C 78 % 1009.8 hPa 0.0 l/m 6.2 km/h (2 Bft) SO 13.4 C 17.2 C
03.10.2003 19:00 16.5 C 81 % 1009.8 hPa 0.0 l/m 0.8 km/h (0 Bft) SO 13.2 C 16.5 C
03.10.2003 20:00 15.5 C 84 % 1009.7 hPa 0.0 l/m 5.3 km/h (1 Bft) SO 12.8 C 15.5 C
03.10.2003 21:00 14.6 C 88 % 1009.7 hPa 0.0 l/m 3.2 km/h (1 Bft) SO 12.7 C 14.6 C
03.10.2003 22:00 14.4 C 92 % 1009.3 hPa 0.0 l/m 1.8 km/h (1 Bft) SO 13.1 C 14.4 C
03.10.2003 23:00 14.2 C 91 % 1008.7 hPa 0.0 l/m 3.6 km/h (1 Bft) O-SO 12.8 C 14.2 C
04.10.2003 00:00 14.1 C 86 % 1008.6 hPa 0.8 l/m 17.2 km/h (3 Bft) NW 11.8 C 14.1 C
04.10.2003 01:00 13.1 C 92 % 1009.0 hPa 1.5 l/m 2.3 km/h (1 Bft) W-NW 11.8 C 13.1 C
04.10.2003 02:00 12.7 C 95 % 1008.3 hPa 0.0 l/m 0.2 km/h (0 Bft) O-SO 11.9 C 12.7 C
04.10.2003 03:00 12.7 C 95 % 1007.6 hPa 0.0 l/m 1.5 km/h (1 Bft) SO 11.9 C 12.7 C
04.10.2003 04:00 12.9 C 97 % 1006.9 hPa 1.1 l/m 0.1 km/h (0 Bft) N 12.3 C 12.9 C
04.10.2003 05:00 12.6 C 96 % 1006.8 hPa 0.8 l/m 6.6 km/h (2 Bft) NW 12.0 C 12.6 C
04.10.2003 06:00 12.6 C 95 % 1007.6 hPa 0.4 l/m 18.7 km/h (3 Bft) W-NW 11.8 C 12.6 C
04.10.2003 07:00 12.6 C 88 % 1007.6 hPa 0.0 l/m 29.4 km/h (5 Bft) NW 10.7 C 12.6 C
04.10.2003 08:00 13.1 C 87 % 1008.5 hPa 0.4 l/m 7.6 km/h (2 Bft) W-NW 11.0 C 13.1 C
04.10.2003 09:00 12.9 C 91 % 1008.6 hPa 0.8 l/m 3.1 km/h (1 Bft) SO 11.4 C 12.9 C
04.10.2003 10:00 13.2 C 99 % 1008.6 hPa 1.9 l/m 0.5 km/h (0 Bft) SO 13.0 C 13.2 C
04.10.2003 11:00 13.2 C 100 % 1008.6 hPa 3.4 l/m 3.1 km/h (1 Bft) W-NW 13.2 C 13.2 C
04.10.2003 12:00 13.3 C 100 % 1008.6 hPa 1.9 l/m 1.7 km/h (1 Bft) SO 13.3 C 13.3 C
04.10.2003 13:00 13.5 C 100 % 1008.2 hPa 0.0 l/m 4.7 km/h (1 Bft) NW 13.5 C 13.5 C
04.10.2003 14:00 13.5 C 94 % 1007.6 hPa 0.0 l/m 12.6 km/h (3 Bft) NW 12.6 C 13.5 C
04.10.2003 15:00 13.3 C 90 % 1007.6 hPa 0.0 l/m 8.0 km/h (2 Bft) W-NW 11.7 C 13.3 C
04.10.2003 16:00 13.1 C 91 % 1007.6 hPa 0.0 l/m 0.5 km/h (0 Bft) W 11.6 C 13.1 C
04.10.2003 17:00 13.6 C 85 % 1007.5 hPa 0.0 l/m 2.0 km/h (1 Bft) W-NW 11.0 C 13.6 C
04.10.2003 18:00 12.9 C 87 % 1007.2 hPa 0.0 l/m 9.6 km/h (2 Bft) W-NW 10.7 C 12.9 C
04.10.2003 19:00 12.0 C 87 % 1006.5 hPa 0.4 l/m 2.2 km/h (1 Bft) NW 10.0 C 12.0 C
04.10.2003 20:00 11.3 C 91 % 1006.5 hPa 0.0 l/m 0.2 km/h (0 Bft) W-NW 9.9 C 11.3 C
04.10.2003 21:00 11.1 C 91 % 1006.4 hPa 0.0 l/m 1.4 km/h (1 Bft) W-NW 9.8 C 11.1 C
04.10.2003 22:00 11.0 C 93 % 1005.3 hPa 0.0 l/m 0.8 km/h (0 Bft) NW 10.0 C 11.0 C
04.10.2003 23:00 10.7 C 94 % 1004.5 hPa 0.0 l/m 0.2 km/h (0 Bft) W-NW 9.7 C 10.7 C
05.10.2003 00:00 10.4 C 94 % 1003.9 hPa 0.4 l/m 2.2 km/h (1 Bft) NW 9.5 C 10.4 C
05.10.2003 01:00 9.8 C 93 % 1003.3 hPa 0.0 l/m 0.3 km/h (0 Bft) W-NW 8.7 C 9.8 C
05.10.2003 02:00 9.7 C 94 % 1002.4 hPa 2.3 l/m 0.3 km/h (0 Bft) N 8.7 C 9.7 C
05.10.2003 03:00 9.0 C 96 % 1002.4 hPa 3.1 l/m 2.8 km/h (1 Bft) NW 8.4 C 8.8 C
05.10.2003 04:00 8.0 C 96 % 1002.7 hPa 3.1 l/m 1.6 km/h (1 Bft) NW 7.4 C 7.8 C
05.10.2003 05:00 7.5 C 99 % 1003.4 hPa 1.5 l/m 2.2 km/h (1 Bft) NW 7.3 C 7.3 C
05.10.2003 06:00 7.0 C 98 % 1003.9 hPa 1.1 l/m 3.4 km/h (1 Bft) NW 6.7 C 6.4 C
05.10.2003 07:00 6.9 C 97 % 1004.5 hPa 0.0 l/m 2.3 km/h (1 Bft) W-NW 6.4 C 6.6 C
05.10.2003 08:00 7.0 C 98 % 1004.5 hPa 0.0 l/m 0.9 km/h (0 Bft) W-NW 6.8 C 7.0 C
05.10.2003 09:00 7.1 C 100 % 1005.3 hPa 0.0 l/m 1.5 km/h (1 Bft) O-SO 7.1 C 6.9 C
05.10.2003 10:00 7.6 C 99 % 1005.5 hPa 0.0 l/m 1.2 km/h (1 Bft) W 7.4 C 7.4 C
05.10.2003 11:00 7.4 C 98 % 1005.6 hPa 2.3 l/m 0.4 km/h (0 Bft) S 7.0 C 7.4 C
05.10.2003 12:00 7.9 C 99 % 1006.3 hPa 0.0 l/m 0.2 km/h (0 Bft) S 7.7 C 7.9 C
05.10.2003 13:00 8.4 C 86 % 1006.5 hPa 0.0 l/m 5.2 km/h (1 Bft) W-NW 6.2 C 7.6 C
05.10.2003 14:00 8.1 C 71 % 1007.2 hPa 0.0 l/m 14.0 km/h (3 Bft) NW 3.2 C 6.0 C
05.10.2003 15:00 7.7 C 76 % 1008.2 hPa 0.0 l/m 16.5 km/h (3 Bft) NW 3.8 C 5.0 C
05.10.2003 16:00 7.1 C 89 % 1009.2 hPa 0.0 l/m 2.5 km/h (1 Bft) W-NW 5.4 C 6.8 C
05.10.2003 17:00 7.1 C 82 % 1010.1 hPa 0.4 l/m 11.3 km/h (2 Bft) NW 4.2 C 5.0 C
05.10.2003 18:00 6.7 C 93 % 1011.0 hPa 0.0 l/m 2.3 km/h (1 Bft) W-NW 5.7 C 6.3 C
05.10.2003 19:00 6.6 C 94 % 1011.9 hPa 0.8 l/m 0.4 km/h (0 Bft) S-SO 5.7 C 6.5 C
05.10.2003 20:00 6.3 C 95 % 1012.8 hPa 0.0 l/m 6.6 km/h (2 Bft) SO 5.6 C 5.1 C
05.10.2003 21:00 6.5 C 97 % 1013.5 hPa 0.4 l/m 3.8 km/h (1 Bft) SO 6.0 C 5.8 C
05.10.2003 22:00 6.5 C 94 % 1014.4 hPa 0.0 l/m 4.6 km/h (1 Bft) NW 5.6 C 5.7 C
05.10.2003 23:00 6.4 C 94 % 1014.9 hPa 0.0 l/m 1.5 km/h (1 Bft) SO 5.5 C 6.2 C
Min-Datum _ 30.09.03 29.09.03 05.10.03 - 29.09.03 - 29.09.03 30.09.03
_ Min-Zeit 06:56 15:11 01:56 - 01:20 - 15:14 05:14
Minimum _ 2.5 C 33 % 1002.4 hPa - 0.0 km/h (0 Bft) - 0.1 C 1.9 C
Max-Datum _ 02.10.03 30.09.03 29.09.03 04.10.03 04.10.03 - 03.10.03 02.10.03
_ Max-Zeit 16:44 07:11 09:59 10:00 06:41 - 12:41 16:44
Maximum _ 24.3 C 100 % 1015.9 hPa 3.4 l/m 45.9 km/h
W-NW (6 Bft)
- 17.5 C 24.3 C
Durchschnitt _ 11.9 C 86 % 1011.1 hPa #44.3 l/m 4.3 km/h (1 Bft) NW 9.3 C 11.9 C

Durchschnitt Minimum Temp.11.4 C
Durchschnitt Maximum Temp.12.5 C
© Kaiko 2003